This is the latest recevied weather packets stored in our database for station/object SA6GOM-3. If no packets are shown the sender has not sent any weather packets the latest 10 day(s).
| Time | Temp. | Humidity | Pressure | Rain* | Wind** | Luminosity | Snow |
|---|---|---|---|---|---|---|---|
| 1777692938 | 3.89° C | 80% | 1019.2 hPa | - | - | - | - |
| 1777689338 | 3.89° C | 77% | 1020 hPa | - | - | - | - |
| 1777685738 | 3.89° C | 73% | 1020.6 hPa | - | - | - | - |
| 1777682138 | 5° C | 73% | 1021.5 hPa | - | - | - | - |
| 1777678537 | 5° C | 73% | 1021.9 hPa | - | - | - | - |
| 1777674937 | 6.11° C | 69% | 1022.5 hPa | - | - | - | - |
| 1777671337 | 6.67° C | 66% | 1022.8 hPa | - | - | - | - |
| 1777667737 | 8.89° C | 65% | 1023.2 hPa | - | - | - | - |
| 1777664137 | 9.44° C | 59% | 1023.7 hPa | - | - | - | - |
| 1777660537 | 12.78° C | 50% | 1024 hPa | - | - | - | - |
| 1777656937 | 15° C | 43% | 1024.3 hPa | - | - | - | - |
| 1777653337 | 16.11° C | 39% | 1024.7 hPa | - | - | - | - |
| 1777649737 | 18.33° C | 36% | 1025.2 hPa | - | - | - | - |
| 1777646137 | 18.89° C | 34% | 1025.8 hPa | - | - | - | - |
| 1777642536 | 19.44° C | 34% | 1026.5 hPa | - | - | - | - |
| 1777638936 | 20° C | 30% | 1027 hPa | - | - | - | - |
| 1777635336 | 21.11° C | 31% | 1027.2 hPa | - | - | - | - |
| 1777631736 | 21.11° C | 32% | 1027.4 hPa | - | - | - | - |
| 1777628136 | 22.78° C | 29% | 1027.5 hPa | - | - | - | - |
| 1777624536 | 28.33° C | 23% | 1027.4 hPa | - | - | - | - |
| 1777620936 | 23.33° C | 32% | 1027.4 hPa | - | - | - | - |
| 1777617336 | 26.11° C | 32% | 1027.5 hPa | - | - | - | - |
| 1777613736 | 25° C | 34% | 1027.3 hPa | - | - | - | - |
| 1777610136 | 18.89° C | 47% | 1027.4 hPa | - | - | - | - |
| 1777606536 | 5° C | 83% | 1027.7 hPa | - | - | - | - |
* Rain since midnight (hover to see other rain measurements)
** Current wind speed in m/s (hover to see current wind gust speed)